Time;durP1;ratioP1;P1;durP2;ratioP2;P2;SDS_P1;SDS_P2;PMS_P1;PMS_P2;Temp;Humidity;BMP_temperature;BMP_pressure;BME280_temperature;BME280_humidity;BME280_pressure;Samples;Min_cycle;Max_cycle;Signal;HPM_P1;HPM_P2
2023/05/28 04:45:32;;;;;;;12.73;7.57;;;;;;;;;;5078160;28;21146;-87
2023/05/28 04:54:07;;;;;;;12.17;7.43;;;;;;;;;;5036005;27;20304;-86
2023/05/28 05:02:05;;;;;;;20.47;7.07;;;;;;;;;;5140030;27;20283;-87
2023/05/28 05:09:18;;;;;;;13.10;8.00;;;;;;;;;;5138901;27;20277;-86
2023/05/28 05:15:35;;;;;;;18.07;8.20;;;;;;;;;;5180303;27;20273;-87
2023/05/28 05:21:09;;;;;;;12.10;6.80;;;10.70;99.90;;;;;;5139992;27;20659;-86
2023/05/28 05:27:03;;;;;;;9.17;6.50;;;10.90;99.90;;;;;;5141009;27;20623;-84
2023/05/28 05:32:46;;;;;;;10.17;5.53;;;11.10;99.90;;;;;;5145403;27;20383;-86
2023/05/28 05:37:18;;;;;;;9.07;5.83;;;11.00;99.90;;;;;;5099445;28;20835;-86
2023/05/28 05:42:14;;;;;;;10.40;6.43;;;11.20;99.90;;;;;;5120001;27;20371;-86
2023/05/28 05:47:06;;;;;;;10.30;6.13;;;11.30;99.90;;;;;;5099420;28;20287;-85
2023/05/28 05:51:58;;;;;;;10.50;6.37;;;11.60;99.90;;;;;;5140803;27;20289;-84
2023/05/28 05:56:52;;;;;;;16.87;5.97;;;11.70;99.90;;;;;;5078942;28;20544;-81
2023/05/28 06:00:38;;;;;;;10.67;5.30;;;11.90;99.90;;;;;;5140710;27;20267;-82
2023/05/28 06:04:33;;;;;;;8.73;5.33;;;12.20;99.90;;;;;;5117948;27;20268;-81
2023/05/28 06:08:27;;;;;;;8.17;5.33;;;12.30;99.90;;;;;;5138379;27;20274;-80
2023/05/28 06:12:22;;;;;;;16.20;5.90;;;12.60;99.90;;;;;;5138411;27;20283;-82
2023/05/28 06:16:19;;;;;;;12.87;5.77;;;12.70;99.90;;;;;;5169480;27;20547;-82
2023/05/28 06:20:19;;;;;;;10.00;4.67;;;12.70;99.90;;;;;;5095164;28;20516;-80
2023/05/28 06:24:17;;;;;;;11.73;4.73;;;12.90;99.90;;;;;;5135556;27;20271;-78
2023/05/28 06:28:15;;;;;;;11.70;4.97;;;13.10;99.90;;;;;;5075267;28;20529;-83
2023/05/28 06:32:13;;;;;;;9.40;4.50;;;13.30;99.90;;;;;;5173561;27;20384;-82
2023/05/28 06:36:12;;;;;;;13.50;5.50;;;15.10;99.90;;;;;;5157231;27;20626;-83
2023/05/28 06:40:14;;;;;;;9.47;5.33;;;13.50;99.90;;;;;;5074035;28;20546;-81
2023/05/28 06:44:11;;;;;;;9.03;5.53;;;15.50;99.90;;;;;;5158606;27;20915;-86
2023/05/28 06:48:10;;;;;;;13.53;5.47;;;14.20;99.90;;;;;;5141588;27;20588;-85
2023/05/28 06:50:36;;;;;;;9.83;4.43;;;14.20;99.90;;;;;;5141933;28;20206;-80
2023/05/28 06:55:08;;;;;;;9.43;4.87;;;14.40;99.90;;;;;;5136412;27;20268;-85
2023/05/28 06:57:36;;;;;;;7.47;4.10;;;14.50;99.90;;;;;;5117975;28;20267;-82
2023/05/28 07:00:10;;;;;;;11.00;4.33;;;14.70;99.90;;;;;;5136641;28;20184;-82
2023/05/28 07:02:36;;;;;;;9.60;4.00;;;14.90;99.90;;;;;;5124227;28;20228;-81
2023/05/28 07:05:04;;;;;;;8.37;4.60;;;14.90;99.90;;;;;;5138554;27;20174;-80
2023/05/28 07:07:33;;;;;;;8.13;4.57;;;15.10;99.90;;;;;;5137378;27;20175;-81
2023/05/28 07:09:59;;;;;;;12.60;4.83;;;15.30;99.90;;;;;;5137818;27;20171;-80
2023/05/28 07:12:24;;;;;;;7.70;4.70;;;15.40;99.90;;;;;;5138175;27;20559;-80
2023/05/28 07:14:50;;;;;;;12.47;4.93;;;15.50;99.90;;;;;;5136096;27;20199;-80
2023/05/28 07:17:16;;;;;;;10.57;4.57;;;15.60;99.90;;;;;;5137948;27;20165;-80
2023/05/28 07:19:42;;;;;;;11.47;4.70;;;15.60;99.90;;;;;;5138024;27;20211;-80
2023/05/28 07:22:07;;;;;;;9.67;4.97;;;15.90;99.90;;;;;;5137898;27;20245;-81
2023/05/28 07:24:33;;;;;;;9.10;4.97;;;15.90;99.90;;;;;;5139814;27;20172;-81
2023/05/28 07:26:59;;;;;;;8.60;4.23;;;16.10;99.90;;;;;;5145146;27;20187;-81
2023/05/28 07:29:27;;;;;;;7.90;5.30;;;16.30;99.90;;;;;;5150446;27;20189;-81
2023/05/28 07:31:52;;;;;;;8.90;4.33;;;16.40;99.90;;;;;;5150822;27;20696;-80
2023/05/28 07:34:18;;;;;;;8.90;4.50;;;16.60;99.90;;;;;;5150134;27;20262;-81
2023/05/28 07:36:44;;;;;;;10.57;4.40;;;16.90;99.90;;;;;;5149285;27;20170;-80
2023/05/28 07:39:10;;;;;;;7.43;4.70;;;17.00;99.90;;;;;;5137071;27;20520;-80
2023/05/28 07:41:35;;;;;;;8.40;4.37;;;17.10;99.90;;;;;;5137333;27;20169;-82
2023/05/28 07:44:02;;;;;;;9.03;4.47;;;17.20;99.90;;;;;;5137809;27;20197;-82
2023/05/28 07:46:27;;;;;;;9.20;4.53;;;17.30;99.90;;;;;;5136346;28;20239;-81
2023/05/28 07:48:53;;;;;;;8.50;4.50;;;17.40;99.90;;;;;;5138096;27;20555;-80
2023/05/28 07:51:19;;;;;;;10.93;4.43;;;17.70;99.90;;;;;;5136329;28;20178;-81
2023/05/28 07:53:44;;;;;;;8.27;4.50;;;17.70;99.90;;;;;;5136444;28;20263;-80
2023/05/28 07:56:10;;;;;;;10.70;4.97;;;17.90;99.90;;;;;;5137589;28;20168;-80
2023/05/28 07:58:36;;;;;;;8.60;4.37;;;17.90;99.90;;;;;;5137963;28;20694;-81
2023/05/28 08:01:02;;;;;;;8.37;4.60;;;18.00;99.90;;;;;;5139084;27;20181;-81
2023/05/28 08:03:27;;;;;;;6.27;4.10;;;18.10;99.90;;;;;;5140451;27;20198;-82
2023/05/28 08:05:54;;;;;;;12.40;4.20;;;18.20;99.90;;;;;;5131135;27;20181;-81
2023/05/28 08:08:20;;;;;;;9.37;4.80;;;18.30;99.90;;;;;;5127755;28;20181;-80
2023/05/28 08:10:46;;;;;;;9.30;3.97;;;18.40;99.90;;;;;;5123643;28;20256;-81
2023/05/28 08:13:11;;;;;;;9.03;4.13;;;18.60;99.90;;;;;;5124198;28;20586;-80
2023/05/28 08:15:37;;;;;;;9.37;4.77;;;18.80;99.90;;;;;;5121798;28;20176;-81
2023/05/28 08:18:03;;;;;;;8.00;4.00;;;19.00;99.90;;;;;;5124910;28;20198;-81
2023/05/28 08:20:29;;;;;;;9.43;3.83;;;19.20;99.90;;;;;;5123372;28;20198;-81
2023/05/28 08:22:55;;;;;;;8.57;4.10;;;19.30;99.90;;;;;;5123456;28;20227;-82
2023/05/28 08:25:21;;;;;;;8.97;4.10;;;19.50;99.90;;;;;;5124561;28;20174;-82
2023/05/28 08:27:47;;;;;;;10.10;3.80;;;19.80;99.90;;;;;;5123656;28;20172;-81
2023/05/28 08:30:12;;;;;;;9.30;4.23;;;20.00;99.90;;;;;;5120854;28;20286;-80
2023/05/28 08:32:38;;;;;;;8.77;4.00;;;20.10;99.90;;;;;;5122903;28;20226;-80
2023/05/28 08:35:04;;;;;;;9.20;4.10;;;20.20;99.90;;;;;;5121512;28;20211;-81
2023/05/28 08:37:30;;;;;;;6.30;3.73;;;20.20;99.90;;;;;;5123826;28;20607;-81
2023/05/28 08:39:55;;;;;;;7.23;4.10;;;20.10;99.90;;;;;;5121486;28;20204;-81
2023/05/28 08:42:21;;;;;;;6.83;3.73;;;20.20;99.90;;;;;;5121871;28;20192;-82
2023/05/28 08:44:47;;;;;;;7.60;3.90;;;20.40;99.90;;;;;;5121181;28;20176;-81
2023/05/28 08:47:14;;;;;;;11.60;4.20;;;20.50;99.90;;;;;;5122421;28;20169;-82
2023/05/28 08:49:50;;;;;;;9.47;3.90;;;20.40;99.90;;;;;;5122274;28;20182;-82
2023/05/28 08:52:19;;;;;;;8.17;4.07;;;20.50;99.90;;;;;;5120662;28;20205;-82
2023/05/28 08:54:46;;;;;;;10.47;4.17;;;20.80;99.90;;;;;;5121518;28;20208;-81
2023/05/28 08:57:12;;;;;;;8.30;4.03;;;20.90;99.90;;;;;;5122870;28;20273;-82
2023/05/28 08:59:38;;;;;;;7.70;3.43;;;20.90;99.40;;;;;;5124067;28;20705;-81
2023/05/28 09:02:05;;;;;;;7.77;3.70;;;21.10;99.10;;;;;;5122653;28;20195;-81
2023/05/28 09:04:30;;;;;;;6.47;3.40;;;21.30;98.60;;;;;;5123725;28;20243;-80
2023/05/28 09:06:57;;;;;;;9.70;3.80;;;21.40;96.00;;;;;;5124488;28;20664;-80
2023/05/28 09:09:24;;;;;;;7.87;3.63;;;21.60;96.30;;;;;;5125208;28;20227;-82
2023/05/28 09:11:49;;;;;;;6.77;3.40;;;21.70;95.40;;;;;;5124097;28;20187;-82
2023/05/28 09:14:18;;;;;;;7.40;3.63;;;22.00;97.70;;;;;;5130176;28;20231;-82
2023/05/28 09:16:44;;;;;;;7.27;3.23;;;22.10;93.80;;;;;;5131618;28;20186;-82
2023/05/28 09:19:14;;;;;;;7.80;3.30;;;22.10;92.70;;;;;;5133070;28;20176;-82
2023/05/28 09:21:56;;;;;;;5.77;3.03;;;22.10;92.30;;;;;;5129617;28;20184;-81
2023/05/28 09:24:24;;;;;;;7.80;3.90;;;22.10;94.30;;;;;;5125799;28;20183;-83
2023/05/28 09:26:50;;;;;;;10.20;3.67;;;22.20;96.60;;;;;;5126989;28;20241;-82
2023/05/28 09:29:16;;;;;;;6.30;3.23;;;22.50;90.60;;;;;;5122241;28;20626;-81
2023/05/28 09:31:41;;;;;;;8.20;3.50;;;22.80;93.00;;;;;;5120933;28;20179;-82
2023/05/28 09:34:07;;;;;;;7.20;3.43;;;23.00;90.80;;;;;;5120215;28;20280;-83
2023/05/28 09:36:36;;;;;;;7.13;2.73;;;23.10;90.10;;;;;;5119473;28;20578;-81
2023/05/28 09:39:07;;;;;;;7.50;3.20;;;23.00;88.30;;;;;;5121652;28;20180;-82
2023/05/28 09:41:33;;;;;;;7.33;3.30;;;23.20;88.90;;;;;;5122277;28;20163;-81
2023/05/28 09:44:01;;;;;;;6.33;3.70;;;23.50;90.00;;;;;;5122187;28;20282;-82
2023/05/28 09:46:36;;;;;;;4.13;2.87;;;23.60;84.50;;;;;;5120389;28;20181;-82
2023/05/28 09:49:03;;;;;;;8.70;3.97;;;23.90;90.00;;;;;;5120341;28;20262;-83
2023/05/28 09:51:30;;;;;;;8.93;3.00;;;23.90;83.50;;;;;;5122697;28;20550;-82
2023/05/28 09:54:01;;;;;;;5.90;3.53;;;23.60;82.30;;;;;;5122093;28;20222;-82
2023/05/28 09:56:31;;;;;;;5.77;3.27;;;23.40;83.50;;;;;;5121682;28;20176;-80
2023/05/28 09:58:58;;;;;;;7.30;3.27;;;23.30;86.00;;;;;;5120614;28;20185;-80
2023/05/28 10:01:30;;;;;;;6.20;3.37;;;23.50;84.70;;;;;;5121440;28;20227;-80
2023/05/28 10:04:08;;;;;;;7.23;3.07;;;23.80;82.90;;;;;;5121758;28;20196;-81
2023/05/28 10:06:35;;;;;;;5.23;3.30;;;24.10;82.80;;;;;;5121695;28;20228;-81
2023/05/28 10:09:04;;;;;;;7.73;3.57;;;24.00;81.30;;;;;;5121099;28;20225;-82
2023/05/28 10:11:38;;;;;;;6.67;3.30;;;24.20;89.40;;;;;;5121161;28;20178;-82
2023/05/28 10:14:05;;;;;;;6.83;3.30;;;24.20;84.60;;;;;;5121059;28;20194;-82
2023/05/28 10:16:32;;;;;;;4.37;3.10;;;24.30;86.80;;;;;;5122323;28;20267;-81
2023/05/28 10:18:59;;;;;;;6.77;3.37;;;24.20;86.90;;;;;;5121488;28;20633;-81
2023/05/28 10:21:26;;;;;;;7.33;3.57;;;24.80;83.30;;;;;;5121573;28;20244;-81
2023/05/28 10:23:52;;;;;;;8.80;3.30;;;24.90;78.80;;;;;;5120731;28;20199;-82
2023/05/28 10:26:18;;;;;;;6.17;3.10;;;24.70;76.40;;;;;;5121684;28;20171;-82
2023/05/28 10:28:44;;;;;;;6.77;3.60;;;24.80;82.90;;;;;;5121303;28;20168;-81
2023/05/28 10:31:10;;;;;;;4.93;3.20;;;25.10;78.00;;;;;;5120055;28;20519;-81
2023/05/28 10:33:43;;;;;;;4.07;3.03;;;25.20;75.50;;;;;;5122310;28;20707;-82
2023/05/28 10:36:11;;;;;;;6.13;3.40;;;25.20;77.60;;;;;;5122760;28;20180;-82
2023/05/28 10:39:06;;;;;;;6.77;3.33;;;25.50;78.50;;;;;;5123011;28;20240;-81
2023/05/28 10:41:33;;;;;;;8.47;3.00;;;25.50;77.20;;;;;;5113363;28;20198;-84
2023/05/28 10:44:08;;;;;;;6.77;3.40;;;25.60;72.00;;;;;;5124901;28;20249;-84
2023/05/28 10:46:41;;;;;;;5.30;3.07;;;25.60;73.60;;;;;;5125017;28;20182;-83
2023/05/28 10:49:11;;;;;;;9.17;3.30;;;25.60;72.00;;;;;;5122595;28;20164;-82
2023/05/28 10:51:56;;;;;;;6.30;3.40;;;25.80;75.90;;;;;;5127421;28;20523;-82
2023/05/28 10:54:26;;;;;;;10.07;3.40;;;26.10;75.70;;;;;;5121585;28;20221;-81
2023/05/28 10:57:17;;;;;;;6.17;3.27;;;26.40;72.90;;;;;;5127599;28;20258;-82
2023/05/28 10:59:50;;;;;;;8.00;3.53;;;26.20;70.40;;;;;;5123408;28;20412;-82
2023/05/28 11:02:26;;;;;;;6.33;3.33;;;26.40;68.20;;;;;;5129413;28;20191;-84
2023/05/28 11:04:56;;;;;;;4.90;3.10;;;26.20;67.70;;;;;;5125407;28;20171;-81
2023/05/28 11:07:27;;;;;;;6.20;3.57;;;26.10;67.60;;;;;;5122483;28;20184;-82
2023/05/28 11:09:56;;;;;;;6.23;3.43;;;26.00;76.10;;;;;;5118907;28;20641;-83
2023/05/28 11:12:22;;;;;;;7.90;3.43;;;26.10;69.40;;;;;;5117176;28;20622;-81
2023/05/28 11:14:48;;;;;;;5.20;3.20;;;26.30;69.10;;;;;;5119213;28;20706;-82
2023/05/28 11:17:15;;;;;;;4.87;3.50;;;26.60;67.10;;;;;;5118792;28;20637;-80
2023/05/28 11:19:51;;;;;;;5.07;3.23;;;27.10;70.50;;;;;;5117995;28;20182;-81
2023/05/28 11:22:19;;;;;;;6.10;3.07;;;27.50;65.50;;;;;;5118391;28;20233;-82
2023/05/28 11:24:59;;;;;;;6.83;3.90;;;27.60;62.40;;;;;;5119196;28;20176;-81
2023/05/28 11:27:30;;;;;;;4.90;3.43;;;27.70;65.70;;;;;;5119152;28;20617;-81
2023/05/28 11:29:58;;;;;;;5.73;3.23;;;27.90;68.50;;;;;;5117908;28;20189;-82
2023/05/28 11:32:25;;;;;;;4.63;3.23;;;28.00;60.50;;;;;;5120193;28;20196;-81
2023/05/28 11:34:52;;;;;;;7.60;3.30;;;28.00;61.50;;;;;;5120766;28;20226;-82
2023/05/28 11:37:48;;;;;;;5.27;2.90;;;28.00;59.90;;;;;;5120534;28;20210;-80
2023/05/28 11:40:14;;;;;;;5.50;3.40;;;28.10;64.00;;;;;;5110683;28;20185;-80
2023/05/28 11:42:42;;;;;;;6.57;3.70;;;28.40;63.00;;;;;;5122475;28;20192;-81
2023/05/28 11:45:09;;;;;;;7.10;3.67;;;28.80;59.40;;;;;;5122933;28;20180;-80
2023/05/28 11:47:36;;;;;;;6.83;3.77;;;28.40;60.80;;;;;;5125667;28;20167;-83
2023/05/28 11:50:10;;;;;;;6.63;3.40;;;28.80;66.10;;;;;;5126073;28;20278;-83
2023/05/28 11:52:36;;;;;;;7.33;3.70;;;29.00;60.70;;;;;;5123357;28;20203;-83
2023/05/28 11:55:02;;;;;;;6.53;3.53;;;29.10;64.30;;;;;;5125543;28;20621;-83
2023/05/28 11:57:33;;;;;;;8.47;3.20;;;29.10;63.00;;;;;;5126609;28;20256;-83
2023/05/28 11:59:59;;;;;;;7.13;3.27;;;29.00;64.10;;;;;;5125850;28;20161;-83
2023/05/28 12:02:25;;;;;;;5.73;3.50;;;29.10;62.60;;;;;;5128468;28;20196;-82
2023/05/28 12:04:57;;;;;;;5.00;2.90;;;29.30;57.60;;;;;;5123482;28;20230;-83
2023/05/28 12:07:32;;;;;;;6.43;3.40;;;29.60;58.10;;;;;;5122540;28;20169;-83
2023/05/28 12:10:09;;;;;;;5.40;3.27;;;29.80;62.20;;;;;;5121115;28;20195;-81
2023/05/28 12:12:45;;;;;;;8.90;3.10;;;29.70;59.80;;;;;;5121814;28;20203;-80
2023/05/28 12:15:12;;;;;;;7.33;3.63;;;29.70;59.30;;;;;;5123197;28;20208;-81
2023/05/28 12:17:40;;;;;;;7.97;3.57;;;29.80;60.20;;;;;;5122690;28;20179;-82
2023/05/28 12:20:26;;;;;;;6.73;3.40;;;30.10;57.90;;;;;;5120998;28;20178;-83
2023/05/28 12:23:09;;;;;;;8.97;3.50;;;30.10;56.50;;;;;;5121517;28;20659;-81
2023/05/28 12:25:43;;;;;;;7.07;3.57;;;30.00;57.30;;;;;;5120587;28;20173;-82
2023/05/28 12:28:14;;;;;;;5.73;3.30;;;29.80;58.20;;;;;;5120237;28;20618;-83
2023/05/28 12:30:42;;;;;;;5.30;3.03;;;29.40;56.50;;;;;;5120572;28;20235;-82
2023/05/28 12:33:10;;;;;;;4.13;2.90;;;29.40;59.20;;;;;;5121222;28;20226;-82
2023/05/28 12:35:35;;;;;;;6.00;3.20;;;29.70;58.20;;;;;;5122642;28;20200;-82
2023/05/28 12:38:02;;;;;;;5.97;3.20;;;29.70;55.80;;;;;;5120980;28;20271;-81
2023/05/28 12:40:28;;;;;;;5.23;3.23;;;29.60;58.70;;;;;;5121698;28;20209;-83
2023/05/28 12:42:53;;;;;;;6.20;3.50;;;29.40;54.80;;;;;;5120521;28;20196;-83
2023/05/28 12:45:19;;;;;;;7.93;4.20;;;29.40;60.50;;;;;;5122469;28;20191;-82
2023/05/28 12:47:45;;;;;;;6.57;2.80;;;29.50;54.80;;;;;;5122470;28;20194;-81
2023/05/28 12:50:11;;;;;;;7.53;3.30;;;29.50;57.20;;;;;;5122985;28;20606;-85
2023/05/28 12:52:36;;;;;;;5.50;3.23;;;29.40;54.60;;;;;;5121070;28;20201;-80
2023/05/28 12:55:03;;;;;;;6.73;2.80;;;29.10;57.60;;;;;;5122220;28;20263;-84
2023/05/28 12:57:29;;;;;;;5.97;3.13;;;29.60;55.20;;;;;;5123374;28;20227;-84
2023/05/28 12:59:57;;;;;;;5.20;3.23;;;29.70;58.80;;;;;;5122339;28;20640;-82
2023/05/28 13:02:22;;;;;;;6.07;3.20;;;30.00;53.90;;;;;;5120955;28;20207;-83
2023/05/28 13:04:48;;;;;;;7.80;3.13;;;30.10;56.80;;;;;;5121681;28;20243;-83
2023/05/28 13:07:14;;;;;;;6.03;3.07;;;30.30;53.70;;;;;;5121882;28;20190;-82
2023/05/28 13:09:39;;;;;;;5.00;2.70;;;30.10;57.10;;;;;;5124011;28;20566;-83
2023/05/28 13:12:05;;;;;;;7.43;3.10;;;29.70;54.80;;;;;;5123967;28;20201;-83
2023/05/28 13:14:31;;;;;;;5.50;2.93;;;29.70;54.20;;;;;;5124895;28;20204;-82
2023/05/28 13:16:58;;;;;;;5.47;3.33;;;29.40;55.40;;;;;;5123926;28;20717;-82
2023/05/28 13:19:27;;;;;;;6.43;3.17;;;29.60;56.60;;;;;;5126428;28;20227;-83
2023/05/28 13:21:52;;;;;;;6.90;3.23;;;29.70;60.90;;;;;;5126200;28;20259;-82
2023/05/28 13:24:18;;;;;;;4.93;3.10;;;29.80;53.80;;;;;;5121808;28;20207;-82
2023/05/28 13:26:44;;;;;;;5.73;2.80;;;29.60;53.70;;;;;;5122537;28;20183;-82
2023/05/28 13:29:09;;;;;;;6.13;3.00;;;29.70;56.60;;;;;;5120557;28;20664;-82
2023/05/28 13:31:35;;;;;;;4.17;2.87;;;29.40;52.60;;;;;;5120312;28;20641;-83
2023/05/28 13:34:02;;;;;;;4.57;2.50;;;29.40;55.00;;;;;;5120980;28;20571;-81
2023/05/28 13:36:30;;;;;;;7.97;2.57;;;29.60;51.80;;;;;;5120298;28;20187;-80
2023/05/28 13:38:56;;;;;;;7.83;2.97;;;29.70;56.40;;;;;;5118819;28;20608;-83
2023/05/28 13:41:24;;;;;;;5.23;2.97;;;29.80;56.20;;;;;;5119095;28;20189;-84
2023/05/28 13:43:53;;;;;;;4.47;3.13;;;29.90;60.00;;;;;;5119067;28;20202;-82
2023/05/28 13:46:24;;;;;;;6.63;2.90;;;29.90;52.70;;;;;;5120861;28;20175;-83
2023/05/28 13:48:50;;;;;;;5.90;2.83;;;29.80;52.30;;;;;;5118537;28;20183;-82
2023/05/28 13:51:16;;;;;;;6.77;2.93;;;29.40;54.60;;;;;;5118677;28;20190;-81
2023/05/28 13:53:45;;;;;;;5.67;3.23;;;29.40;55.40;;;;;;5118432;28;20225;-82
2023/05/28 13:56:11;;;;;;;5.53;3.10;;;29.70;53.50;;;;;;5122793;28;20169;-83
2023/05/28 13:58:37;;;;;;;3.90;3.03;;;29.70;52.20;;;;;;5120889;28;20262;-83
2023/05/28 14:01:03;;;;;;;4.70;2.70;;;29.50;50.70;;;;;;5123079;28;20585;-83
2023/05/28 14:03:28;;;;;;;6.37;3.33;;;29.00;51.90;;;;;;5121368;28;20247;-81
2023/05/28 14:05:55;;;;;;;6.90;2.73;;;28.70;52.10;;;;;;5122407;28;20682;-81
2023/05/28 14:08:22;;;;;;;6.97;3.60;;;28.80;55.00;;;;;;5121860;28;20182;-84
2023/05/28 14:10:48;;;;;;;4.60;2.73;;;29.30;57.60;;;;;;5121618;28;20180;-83
2023/05/28 14:13:14;;;;;;;7.70;2.83;;;29.30;56.50;;;;;;5122559;28;20688;-83
2023/05/28 14:15:39;;;;;;;4.90;2.57;;;29.30;50.60;;;;;;5122383;28;20176;-83
2023/05/28 14:18:06;;;;;;;4.73;2.90;;;29.50;50.90;;;;;;5122816;28;20197;-82
2023/05/28 14:20:34;;;;;;;4.00;2.40;;;29.30;50.40;;;;;;5137136;28;20205;-81
2023/05/28 14:23:03;;;;;;;5.57;3.20;;;29.30;51.90;;;;;;5137718;28;20194;-81
2023/05/28 14:25:29;;;;;;;9.03;6.03;;;29.30;52.20;;;;;;5134497;28;20184;-82
2023/05/28 14:27:56;;;;;;;7.37;5.03;;;29.30;50.50;;;;;;5134296;28;20182;-81
2023/05/28 14:30:22;;;;;;;5.50;3.57;;;29.30;54.20;;;;;;5121765;28;20174;-83
2023/05/28 14:32:48;;;;;;;4.77;3.27;;;29.10;49.40;;;;;;5123631;28;20190;-82
2023/05/28 14:35:14;;;;;;;4.53;3.13;;;29.00;51.20;;;;;;5123276;27;20199;-83
2023/05/28 14:37:40;;;;;;;5.50;2.87;;;28.70;51.40;;;;;;5123050;28;20195;-83
2023/05/28 14:40:06;;;;;;;4.07;3.03;;;28.90;52.70;;;;;;5126263;28;20182;-81
2023/05/28 14:42:32;;;;;;;5.77;2.77;;;28.90;49.30;;;;;;5119235;28;20197;-83
2023/05/28 14:44:58;;;;;;;4.23;2.43;;;28.70;48.50;;;;;;5119995;28;20168;-83
2023/05/28 14:47:23;;;;;;;6.03;2.90;;;28.60;48.90;;;;;;5118214;28;20201;-83
2023/05/28 14:49:49;;;;;;;4.73;2.83;;;28.60;49.90;;;;;;5118432;28;20191;-82
2023/05/28 14:52:23;;;;;;;4.90;3.00;;;28.70;50.60;;;;;;5117670;28;20204;-83
2023/05/28 14:54:49;;;;;;;4.07;2.70;;;28.90;48.60;;;;;;5117157;28;20210;-83
2023/05/28 14:57:15;;;;;;;5.00;2.60;;;28.90;47.60;;;;;;5118167;28;20206;-81
2023/05/28 14:59:40;;;;;;;5.07;2.73;;;28.80;48.70;;;;;;5118997;28;20198;-82
2023/05/28 15:02:06;;;;;;;5.17;3.37;;;28.60;52.50;;;;;;5120042;28;20193;-82
2023/05/28 15:04:32;;;;;;;5.30;2.70;;;28.60;51.10;;;;;;5118556;28;20199;-81
2023/05/28 15:07:00;;;;;;;4.30;3.03;;;28.70;53.30;;;;;;5118307;28;20179;-83
2023/05/28 15:09:26;;;;;;;3.53;2.53;;;28.90;53.70;;;;;;5117975;28;20650;-81
2023/05/28 15:11:52;;;;;;;4.97;3.20;;;28.50;48.50;;;;;;5119472;28;20172;-82
2023/05/28 15:14:18;;;;;;;5.80;3.07;;;28.20;52.10;;;;;;5118148;28;20225;-82
2023/05/28 15:16:44;;;;;;;4.90;2.90;;;27.80;50.90;;;;;;5120745;28;20179;-81
2023/05/28 15:19:10;;;;;;;3.93;2.83;;;27.00;50.20;;;;;;5121869;28;20194;-82
2023/05/28 15:21:36;;;;;;;6.07;2.90;;;27.00;48.20;;;;;;5121849;28;20185;-82
2023/05/28 15:24:01;;;;;;;5.10;2.53;;;27.30;47.80;;;;;;5122103;28;20204;-82
2023/05/28 15:26:27;;;;;;;3.50;2.63;;;27.70;54.50;;;;;;5123330;28;20180;-82
2023/05/28 15:28:53;;;;;;;8.67;4.13;;;28.10;50.40;;;;;;5124317;28;20185;-83
2023/05/28 15:31:20;;;;;;;5.30;3.37;;;28.30;48.60;;;;;;5121757;28;20237;-82
2023/05/28 15:33:46;;;;;;;6.43;3.87;;;28.10;49.90;;;;;;5124185;28;20635;-83
2023/05/28 15:36:12;;;;;;;8.03;3.53;;;27.90;50.50;;;;;;5123705;28;20180;-83
2023/05/28 15:38:38;;;;;;;5.63;3.40;;;27.80;49.80;;;;;;5126201;28;20169;-82
2023/05/28 15:41:05;;;;;;;9.03;4.00;;;27.50;48.90;;;;;;5125230;28;20205;-83
2023/05/28 15:43:31;;;;;;;5.50;4.00;;;27.00;49.10;;;;;;5125630;28;20192;-82
2023/05/28 15:45:56;;;;;;;6.70;3.47;;;26.70;49.80;;;;;;5124898;28;20222;-84
2023/05/28 15:48:22;;;;;;;6.80;3.87;;;26.60;50.70;;;;;;5125701;27;20267;-82
2023/05/28 15:50:48;;;;;;;6.97;3.97;;;26.60;51.50;;;;;;5124546;28;20179;-82
2023/05/28 15:53:13;;;;;;;5.97;3.60;;;26.80;50.90;;;;;;5126245;28;20633;-82
2023/05/28 15:55:39;;;;;;;5.80;4.07;;;27.10;51.50;;;;;;5127493;28;20496;-84
2023/05/28 15:58:05;;;;;;;6.93;3.63;;;27.30;49.80;;;;;;5129823;28;20197;-83
2023/05/28 16:00:31;;;;;;;7.03;3.83;;;26.80;50.10;;;;;;5122200;28;20175;-83
2023/05/28 16:02:57;;;;;;;5.93;4.43;;;26.20;49.30;;;;;;5122239;28;20325;-82
2023/05/28 16:05:23;;;;;;;6.47;4.33;;;25.80;50.10;;;;;;5123228;28;20182;-82
2023/05/28 16:07:49;;;;;;;7.33;4.93;;;25.60;51.10;;;;;;5120955;28;20654;-81
2023/05/28 16:10:15;;;;;;;6.63;4.57;;;25.50;50.60;;;;;;5122087;28;20174;-82
2023/05/28 16:12:41;;;;;;;6.50;4.40;;;25.40;49.90;;;;;;5122829;28;20205;-83
2023/05/28 16:15:08;;;;;;;6.30;4.20;;;25.20;50.70;;;;;;5122855;28;20196;-80
2023/05/28 16:17:40;;;;;;;7.17;4.10;;;25.00;50.70;;;;;;5121027;28;20182;-83
2023/05/28 16:20:10;;;;;;;7.63;4.43;;;24.70;51.70;;;;;;5123065;28;20167;-83
2023/05/28 16:22:36;;;;;;;5.03;4.03;;;24.40;51.10;;;;;;5123402;28;20187;-82
2023/05/28 16:25:03;;;;;;;6.27;4.30;;;24.10;52.50;;;;;;5122598;28;20176;-81
2023/05/28 16:27:29;;;;;;;6.67;4.17;;;23.70;51.40;;;;;;5121965;28;20206;-81
2023/05/28 16:29:56;;;;;;;6.73;4.83;;;23.30;51.80;;;;;;5123524;28;20178;-81
2023/05/28 16:32:22;;;;;;;7.47;4.53;;;22.70;52.80;;;;;;5123904;28;20195;-83
2023/05/28 16:34:48;;;;;;;6.60;4.50;;;22.30;54.10;;;;;;5122394;28;20203;-82
2023/05/28 16:37:14;;;;;;;7.70;4.13;;;21.90;54.10;;;;;;5124438;28;20223;-82
2023/05/28 16:39:41;;;;;;;6.47;4.17;;;21.60;54.20;;;;;;5121792;28;20179;-81
2023/05/28 16:42:07;;;;;;;6.43;4.47;;;21.30;54.60;;;;;;5120803;28;20195;-80
2023/05/28 16:44:33;;;;;;;6.63;3.40;;;20.90;54.10;;;;;;5120439;28;20637;-82
2023/05/28 16:47:00;;;;;;;6.13;3.60;;;20.90;55.60;;;;;;5122479;28;20184;-81
2023/05/28 16:49:26;;;;;;;7.77;4.47;;;20.80;56.10;;;;;;5123477;28;20624;-84
2023/05/28 16:51:52;;;;;;;6.20;3.60;;;20.80;56.00;;;;;;5125099;28;20536;-82
2023/05/28 16:54:18;;;;;;;7.47;4.43;;;20.80;57.20;;;;;;5122751;28;20720;-82
2023/05/28 16:56:44;;;;;;;6.47;4.40;;;20.80;58.00;;;;;;5121511;28;20189;-81
2023/05/28 16:59:10;;;;;;;10.30;5.17;;;20.70;57.60;;;;;;5121761;28;20277;-81
2023/05/28 17:01:36;;;;;;;7.47;4.47;;;20.70;58.30;;;;;;5124314;28;20228;-83
2023/05/28 17:04:02;;;;;;;10.70;4.80;;;20.60;58.10;;;;;;5122340;28;20196;-82
2023/05/28 17:06:29;;;;;;;8.27;4.33;;;20.60;59.80;;;;;;5124373;28;20263;-82
2023/05/28 17:08:55;;;;;;;9.80;4.53;;;20.50;59.70;;;;;;5121016;28;20191;-84
2023/05/28 17:11:21;;;;;;;7.03;4.00;;;20.40;58.80;;;;;;5127345;28;20203;-84
2023/05/28 17:13:47;;;;;;;9.20;4.50;;;20.40;58.40;;;;;;5128242;28;20212;-82
2023/05/28 17:16:12;;;;;;;8.37;4.33;;;20.30;58.50;;;;;;5131810;28;20221;-81
2023/05/28 17:46:53;;;;;;;8.10;5.10;;;19.20;60.40;;;;;;5138939;27;20776;-81
2023/05/28 18:00:43;;;;;;;7.10;4.73;;;18.80;61.80;;;;;;5137398;27;20270;-81
2023/05/28 18:19:55;;;;;;;10.37;4.90;;;18.30;65.20;;;;;;5078842;28;20557;-84
